Isle Royale Queen III — WDF8600 — position and weather

sailwx.info

Track history (hours):
 
Tides and Currents Weather Stations Pressure Air Temp Water Temp Dewpoint Dewpoint Depression Visibility Wind Speed Wind Dir Waves Ship Positions

Isle Royale Queen III

Owner: Pure Michigan Boat Cruises, Munising, MI. More information available from US FCC via Universal Licensing System and Coast Guard Vessel Documentation Center.

Last reported at 2017-Oct-10 00:16 UTC. Time now 2017-Nov-20 15:08 UTC.
Position N 45°52' W 084°42'.
Warning: this ship's position is 41 days out of date.

Length 24 m.

Type: Passenger vessel. MMSI: 367496570.

Date/timePositionNaut miles runAvg speedWind from/ knotsBaromVisibWave heightAir tempDewpointWater temp
2017-Oct-10 00:16N 45°52' W 084°42'3 9.8
2017-Oct-09 23:58N 45°51' W 084°39'1 2.2
2017-Oct-09 23:31N 45°51' W 084°37'5 9.3
2017-Oct-09 22:58N 45°49' W 084°44'2 4.0
2017-Oct-09 22:29N 45°50' W 084°41'3 5.1
2017-Oct-09 21:51N 45°51' W 084°37'0 0.0
2017-Oct-09 21:18N 45°51' W 084°37'0 0.0
2017-Oct-08 23:54N 45°51' W 084°37'0 0.7
2017-Oct-08 23:30N 45°51' W 084°37'4 7.2
2017-Oct-08 23:00N 45°49' W 084°42'1 1.2
2017-Oct-08 22:26N 45°49' W 084°41'4 5.6
2017-Oct-08 21:47N 45°51' W 084°37'0 0.0
2017-Oct-08 21:29N 45°51' W 084°37'0 0.0
2017-Oct-08 20:41N 45°51' W 084°37'0 0.7
2017-Oct-08 20:30N 45°51' W 084°37'4 8.3
2017-Oct-08 19:58N 45°52' W 084°43'3 0.1
2017-Oct-07 19:33N 45°51' W 084°39'110.5
2017-Oct-07 19:29N 45°51' W 084°38'0 0.8
2017-Oct-07 18:51N 45°51' W 084°39'1 3.5
2017-Oct-07 18:27N 45°52' W 084°40'2 5.0
2017-Oct-07 17:59N 45°52' W 084°36'1 0.9
2017-Oct-07 16:38N 45°51' W 084°37'1 5.9
2017-Oct-07 16:27N 45°51' W 084°39'3 0.2
2017-Oct-06 23:46N 45°52' W 084°43'310.0
2017-Oct-06 23:30N 45°51' W 084°39'2 3.5
2017-Oct-06 22:58N 45°51' W 084°37'4 8.9
2017-Oct-06 22:31N 45°50' W 084°42'1 1.9
2017-Oct-06 21:59N 45°50' W 084°41'3 0.1
2017-Oct-06 00:01N 45°51' W 084°37'0 0.0
2017-Oct-05 23:51N 45°51' W 084°37'2 7.1
2017-Oct-05 23:30N 45°50' W 084°40'3 6.0
2017-Oct-05 23:00N 45°48' W 084°44'4 8.0
2017-Oct-05 22:28N 45°50' W 084°38'1 1.7
2017-Oct-05 21:38N 45°51' W 084°37'0 0.0
2017-Oct-05 21:15N 45°51' W 084°37'2 7.2
2017-Oct-05 21:00N 45°50' W 084°39'3 0.1
2017-Oct-05 00:34N 45°52' W 084°43'1 9.4
2017-Oct-05 00:30N 45°52' W 084°42'4 7.3
2017-Oct-05 00:00N 45°51' W 084°37'2 3.7
2017-Oct-04 23:29N 45°50' W 084°39'3 6.6
2017-Oct-04 23:00N 45°49' W 084°44'4 7.1
2017-Oct-04 22:29N 45°50' W 084°39'2 3.3
2017-Oct-04 21:58N 45°51' W 084°37'0 0.0
2017-Oct-04 21:28N 45°51' W 084°37'  
Track history (hours):
 
Tides and Currents Weather Stations Pressure Air Temp Water Temp Dewpoint Dewpoint Depression Visibility Wind Speed Wind Dir Waves Ship Positions

Isle Royale Queen III

Owner: Pure Michigan Boat Cruises, Munising, MI. More information available from US FCC via Universal Licensing System and Coast Guard Vessel Documentation Center.

Last reported at 2017-Oct-10 00:16 UTC. Time now 2017-Nov-20 15:08 UTC.
Position N 45°52' W 084°42'.
Warning: this ship's position is 41 days out of date.

Length 24 m.

Type: Passenger vessel. MMSI: 367496570.

Date/timePositionNaut miles runAvg speedWind from/ knotsBaromVisibWave heightAir tempDewpointWater temp
2017-Oct-10 00:16N 45°52' W 084°42'3 9.8
2017-Oct-09 23:58N 45°51' W 084°39'1 2.2
2017-Oct-09 23:31N 45°51' W 084°37'5 9.3
2017-Oct-09 22:58N 45°49' W 084°44'2 4.0
2017-Oct-09 22:29N 45°50' W 084°41'3 5.1
2017-Oct-09 21:51N 45°51' W 084°37'0 0.0
2017-Oct-09 21:18N 45°51' W 084°37'0 0.0
2017-Oct-08 23:54N 45°51' W 084°37'0 0.7
2017-Oct-08 23:30N 45°51' W 084°37'4 7.2
2017-Oct-08 23:00N 45°49' W 084°42'1 1.2
2017-Oct-08 22:26N 45°49' W 084°41'4 5.6
2017-Oct-08 21:47N 45°51' W 084°37'0 0.0
2017-Oct-08 21:29N 45°51' W 084°37'0 0.0
2017-Oct-08 20:41N 45°51' W 084°37'0 0.7
2017-Oct-08 20:30N 45°51' W 084°37'4 8.3
2017-Oct-08 19:58N 45°52' W 084°43'3 0.1
2017-Oct-07 19:33N 45°51' W 084°39'110.5
2017-Oct-07 19:29N 45°51' W 084°38'0 0.8
2017-Oct-07 18:51N 45°51' W 084°39'1 3.5
2017-Oct-07 18:27N 45°52' W 084°40'2 5.0
2017-Oct-07 17:59N 45°52' W 084°36'1 0.9
2017-Oct-07 16:38N 45°51' W 084°37'1 5.9
2017-Oct-07 16:27N 45°51' W 084°39'3 0.2
2017-Oct-06 23:46N 45°52' W 084°43'310.0
2017-Oct-06 23:30N 45°51' W 084°39'2 3.5
2017-Oct-06 22:58N 45°51' W 084°37'4 8.9
2017-Oct-06 22:31N 45°50' W 084°42'1 1.9
2017-Oct-06 21:59N 45°50' W 084°41'3 0.1
2017-Oct-06 00:01N 45°51' W 084°37'0 0.0
2017-Oct-05 23:51N 45°51' W 084°37'2 7.1
2017-Oct-05 23:30N 45°50' W 084°40'3 6.0
2017-Oct-05 23:00N 45°48' W 084°44'4 8.0
2017-Oct-05 22:28N 45°50' W 084°38'1 1.7
2017-Oct-05 21:38N 45°51' W 084°37'0 0.0
2017-Oct-05 21:15N 45°51' W 084°37'2 7.2
2017-Oct-05 21:00N 45°50' W 084°39'3 0.1
2017-Oct-05 00:34N 45°52' W 084°43'1 9.4
2017-Oct-05 00:30N 45°52' W 084°42'4 7.3
2017-Oct-05 00:00N 45°51' W 084°37'2 3.7
2017-Oct-04 23:29N 45°50' W 084°39'3 6.6
2017-Oct-04 23:00N 45°49' W 084°44'4 7.1
2017-Oct-04 22:29N 45°50' W 084°39'2 3.3
2017-Oct-04 21:58N 45°51' W 084°37'0 0.0
2017-Oct-04 21:28N 45°51' W 084°37'  

Dump ship's entire track history